Tonypandy, United Kingdom
Current Conditions -  °F | °C
As of 7:50 AM on Wednesday 28 Jan 2015 (Local Time) from EGDX Reporting Station
Drizzle Drizzle  
Wind Chill: 40°   Ceiling: 200
Heat Index: 48°   Visibility: 4mi
Dew Point: 48°   Wind: 29mph
Humidity: 100%   Direction: 260°W
Pressure: 29.68"   Gusts: NA
Location:  51.62°N, 3.45°W
Report Text: EGDX 280750Z AUTO 26025KT 6000 -DZ OVC002/// 09/09 Q1005
Loading
Personal Weather Stations






























Interactive Weather Map New forecast layout! Learn more

10-Day Weather Forecast

Advertisements
Track Severe Weather on mobile